Flight Track Log - Related Links

Times and Time Zones

All times are in EST time to prevent confusion due to time zone crossing. See the EJA871 flight status page for this flight to view local times or setup timezone preferences in your user account.

Time Position Orientation Groundspeed Altitude Reporting Facility
EST Latitude Longitude Course Direction KTS MPH feet Rate Location/Type
Tue 01:04:55 PM 42.0167 -87.9333 294° West 171 197 1,300  Level Chicago TRACON
Tue 01:05:56 PM 42.0333 -87.9833 294° West 184 212 4,600 2,727 Climbing Chicago TRACON
Tue 01:06:56 PM 42.0333 -88.0667 270° West 235 270 6,800 3,090 Climbing Chicago TRACON
Tue 01:08:43 PM 42.0456 -88.2267 276° West 237 273 13,200 3,357 Climbing Chicago Center
Tue 01:09:44 PM 42.0644 -88.3303 284° West 268 308 16,200 2,927 Climbing Chicago Center
Tue 01:10:46 PM 42.0853 -88.4328 285° West 280 322 19,200 2,732 Climbing Chicago Center
Tue 01:11:47 PM 42.1081 -88.5389 286° West 290 334 21,800 2,213 Climbing Chicago Center
Tue 01:12:48 PM 42.1303 -88.6506 285° West 300 345 23,700 2,049 Climbing Chicago Center
Tue 01:13:50 PM 42.1558 -88.7708 286° West 321 369 26,000 2,146 Climbing Chicago Center
Tue 01:14:51 PM 42.1606 -88.8889 273° West 326 375 28,100 2,000 Climbing Chicago Center
Tue 01:15:53 PM 42.1583 -89.0131 269° West 327 376 30,100 1,659 Climbing Chicago Center
Tue 01:16:54 PM 42.1547 -89.1347 268° West 327 376 31,500 1,426 Climbing Chicago Center
Tue 01:17:55 PM 42.1514 -89.2892 268° West 335 386 33,000 1,268 Climbing Chicago Center
Tue 01:18:57 PM 42.1486 -89.4150 268° West 336 387 34,100 1,073 Climbing Chicago Center
Tue 01:19:58 PM 42.1447 -89.5403 268° West 335 386 35,200 934 Climbing Chicago Center
Tue 01:20:59 PM 42.1408 -89.6617 268° West 327 376 36,000 390 Climbing Chicago Center
Tue 01:22:01 PM 42.1364 -89.7889 267° West 337 388 36,000  Level Chicago Center
Tue 01:23:02 PM 42.1322 -89.9175 268° West 356 410 36,000  Level Chicago Center
Tue 01:24:04 PM 42.1289 -90.0547 268° West 367 422 36,000  Level Chicago Center
Tue 01:25:05 PM 42.1233 -90.1983 267° West 381 438 36,000  Level Chicago Center
Tue 01:26:07 PM 42.1169 -90.3708 267° West 387 445 36,000  Level Chicago Center
Tue 01:27:08 PM 42.1117 -90.5144 267° West 387 445 36,000  Level Chicago Center
Tue 01:28:10 PM 42.1069 -90.6600 268° West 389 448 36,000  Level Chicago Center
Tue 01:29:11 PM 42.1003 -90.8069 267° West 393 452 36,000  Level Chicago Center
Tue 01:30:12 PM 42.0933 -90.9553 266° West 398 458 36,000  Level Chicago Center
Tue 01:31:14 PM 42.0867 -91.1058 267° West 403 464 36,000  Level Chicago Center
Tue 01:32:15 PM 42.0803 -91.2558 267° West 402 463 36,000  Level Chicago Center
Tue 01:33:17 PM 42.0803 -91.4031 270° West 396 456 36,000  Level Chicago Center
Tue 01:34:18 PM 42.0842 -91.5800 272° West 395 455 36,000  Level Chicago Center
Tue 01:35:20 PM 42.0847 -91.7308 270° West 399 459 36,000  Level Chicago Center
Tue 01:36:21 PM 42.0858 -91.8811 271° West 403 464 36,000  Level Chicago Center
Tue 01:37:23 PM 42.0872 -92.0294 271° West 399 459 36,000  Level Chicago Center
Tue 01:38:24 PM 42.0878 -92.1778 270° West 398 458 36,000  Level Chicago Center
Tue 01:39:26 PM 42.0875 -92.3242 270° West 394 453 36,000  Level Chicago Center
Tue 01:40:27 PM 42.0883 -92.4725 270° West 396 456 36,000  Level Chicago Center
Tue 01:41:29 PM 42.0886 -92.6211 270° West 398 458 36,000  Level Chicago Center
Tue 01:42:30 PM 42.0881 -92.7981 270° West 395 455 36,000  Level Chicago Center
Tue 01:43:32 PM 42.0886 -92.9472 270° West 399 459 36,000  Level Chicago Center
Tue 01:44:33 PM 42.0878 -93.0978 270° West 403 464 36,000  Level Chicago Center
Tue 01:45:35 PM 42.0872 -93.2472 270° West 401 461 36,000  Level Chicago Center
Tue 01:46:36 PM 42.0867 -93.3978 270° West 404 465 36,000  Level Chicago Center
Tue 01:47:38 PM 42.0881 -93.5481 271° West 404 465 36,000  Level Chicago Center
Tue 01:48:51 PM 42.1069 -93.7294 278° West 408 470 36,000  Level Minneapolis Center
Tue 01:49:53 PM 42.1236 -93.9131 277° West 408 470 36,000  Level Minneapolis Center
Tue 01:50:55 PM 42.1383 -94.0644 278° West 409 471 36,000  Level Minneapolis Center
Tue 01:51:57 PM 42.1528 -94.2172 277° West 412 474 36,000  Level Minneapolis Center
Tue 01:52:58 PM 42.1661 -94.3689 277° West 409 471 36,000  Level Minneapolis Center
Tue 01:54:00 PM 42.1797 -94.5206 277° West 408 470 36,000  Level Minneapolis Center
Tue 01:55:02 PM 42.1928 -94.6731 277° West 412 474 36,000  Level Minneapolis Center
Tue 01:56:04 PM 42.2069 -94.8256 277° West 411 473 36,000  Level Minneapolis Center
Tue 01:57:05 PM 42.2208 -95.0072 276° West 408 470 36,000  Level Minneapolis Center
Tue 01:58:07 PM 42.2344 -95.1600 277° West 410 472 36,000  Level Minneapolis Center
Tue 01:59:09 PM 42.2458 -95.3111 276° West 408 470 36,000  Level Minneapolis Center
Tue 02:00:10 PM 42.2589 -95.4617 277° West 406 467 36,000  Level Minneapolis Center
Tue 02:01:12 PM 42.2706 -95.6125 276° West 405 466 36,000  Level Minneapolis Center
Tue 02:02:14 PM 42.2825 -95.7594 276° West 399 459 36,000  Level Minneapolis Center
Tue 02:03:15 PM 42.2939 -95.9097 276° West 402 463 36,000  Level Minneapolis Center
Tue 02:04:17 PM 42.3069 -96.0883 276° West 402 463 36,000  Level Minneapolis Center
Tue 02:05:18 PM 42.3178 -96.2350 276° West 397 457 36,000  Level Minneapolis Center
Tue 02:06:20 PM 42.3289 -96.3856 276° West 400 460 36,000  Level Minneapolis Center
Tue 02:07:21 PM 42.3394 -96.5367 275° West 404 465 36,000  Level Minneapolis Center
Tue 02:08:23 PM 42.3497 -96.6886 275° West 405 466 36,000  Level Minneapolis Center
Tue 02:09:25 PM 42.3600 -96.8408 275° West 408 470 36,000  Level Minneapolis Center
Tue 02:10:26 PM 42.3697 -96.9919 275° West 406 467 36,000  Level Minneapolis Center
Tue 02:11:28 PM 42.3828 -97.1739 276° West 406 467 36,000  Level Minneapolis Center
Tue 02:12:29 PM 42.3922 -97.3286 275° West 410 472 36,000  Level Minneapolis Center
Tue 02:13:31 PM 42.4014 -97.4819 275° West 411 473 36,000  Level Minneapolis Center
Tue 02:14:32 PM 42.4119 -97.6353 275° West 411 473 36,000  Level Minneapolis Center
Tue 02:15:34 PM 42.4203 -97.7911 274° West 414 476 36,000  Level Minneapolis Center
Tue 02:16:35 PM 42.4308 -97.9619 275° West 414 476 36,000  Level Minneapolis Center
Tue 02:17:37 PM 42.4392 -98.1167 274° West 414 476 36,000  Level Minneapolis Center
Tue 02:18:39 PM 42.4481 -98.2733 274° West 417 480 36,000  Level Minneapolis Center
Tue 02:19:40 PM 42.4575 -98.4308 275° West 419 482 36,000  Level Minneapolis Center
Tue 02:20:42 PM 42.4653 -98.5869 274° West 418 481 36,000  Level Minneapolis Center
Tue 02:21:43 PM 42.4644 -98.7431 270° West 417 480 36,000  Level Minneapolis Center
Tue 02:22:45 PM 42.4481 -98.9014 262° West 424 488 36,000  Level Minneapolis Center
Tue 02:23:46 PM 42.4303 -99.0931 263° West 428 493 36,000  Level Minneapolis Center
Tue 02:24:37 PM 42.4161 -99.2219 262° West 430 495 36,000  Level Denver Center
Tue 02:25:49 PM 42.3969 -99.4147 262° West 433 498 36,000 271 Level Minneapolis Center
Tue 02:26:50 PM 42.3797 -99.5719 262° West 428 493 36,600 637 Climbing Minneapolis Center
Tue 02:27:42 PM 42.3700 -99.6647 262° West 423 487 37,200 730 Climbing Denver Center
Tue 02:28:45 PM 42.3481 -99.8583 261° West 405 466 38,000 384 Climbing Denver Center
Tue 02:29:47 PM 42.3300 -100.0275 262° West 407 468 38,000  Level Denver Center
Tue 02:30:49 PM 42.3136 -100.1739 261° West 411 473 38,000  Level Denver Center
Tue 02:31:50 PM 42.2967 -100.3236 261° West 418 481 38,000  Level Denver Center
Tue 02:32:52 PM 42.2772 -100.4967 261° West 420 483 38,000  Level Denver Center
Tue 02:33:54 PM 42.2600 -100.6478 261° West 425 489 38,000  Level Denver Center
Tue 02:34:56 PM 42.2397 -100.8231 261° West 425 489 38,000  Level Denver Center
Tue 02:35:58 PM 42.2208 -100.9750 261° West 428 493 38,000  Level Denver Center
Tue 02:37:00 PM 42.1997 -101.1522 261° West 430 495 38,000  Level Denver Center
Tue 02:38:02 PM 42.1819 -101.3044 261° West 431 496 38,000  Level Denver Center
Tue 02:39:03 PM 42.1608 -101.4806 261° West 428 493 38,000  Level Denver Center
Tue 02:40:05 PM 42.1406 -101.6328 260° West 431 496 38,000  Level Denver Center
Tue 02:41:07 PM 42.1186 -101.8083 260° West 429 494 38,000  Level Denver Center
Tue 02:42:09 PM 42.0981 -101.9633 260° West 437 503 38,000  Level Denver Center
Tue 02:43:11 PM 42.0767 -102.1397 261° West 432 497 38,000  Level Denver Center
Tue 02:44:13 PM 42.0553 -102.3028 260° West 434 499 38,000  Level Denver Center
Tue 02:45:14 PM 42.0350 -102.4558 260° West 434 499 38,000  Level Denver Center
Tue 02:46:16 PM 42.0136 -102.6100 259° West 436 502 38,000  Level Denver Center
Tue 02:47:18 PM 41.9897 -102.7919 260° West 441 507 38,000  Level Denver Center
Tue 02:48:20 PM 41.9678 -102.9442 259° West 436 502 38,000  Level Denver Center
Tue 02:49:22 PM 41.9436 -103.1192 260° West 428 493 38,000  Level Denver Center
Tue 02:50:23 PM 41.9233 -103.2694 260° West 428 493 38,000 49 Level Denver Center
Tue 02:51:25 PM 41.8978 -103.4436 259° West 426 490 38,100  Climbing Denver Center
Tue 02:52:27 PM 41.8897 -103.5881 266° West 408 470 38,000 -48 Descending Denver Center
Tue 02:53:29 PM 41.8861 -103.7289 268° West 397 457 38,000  Level Denver Center
Tue 02:54:31 PM 41.8808 -103.8942 268° West 396 456 38,000  Level Denver Center
Tue 02:55:32 PM 41.8756 -104.0361 267° West 397 457 38,000  Level Denver Center
Tue 02:56:34 PM 41.8708 -104.1556 267° West 399 459 38,000  Level Denver Center
Tue 02:57:36 PM 41.8642 -104.3433 267° West 395 455 38,000  Level Denver Center
Tue 02:58:38 PM 41.8572 -104.5056 267° West 391 450 38,000  Level Denver Center
Tue 02:59:39 PM 41.8519 -104.6464 267° West 393 452 38,000  Level Denver Center
Tue 03:00:41 PM 41.8461 -104.7892 267° West 398 458 38,000  Level Denver Center
Tue 03:01:43 PM 41.8392 -104.9569 267° West 402 463 38,000  Level Denver Center
Tue 03:02:45 PM 41.8331 -105.0992 267° West 400 460 38,000  Level Denver Center
Tue 03:03:46 PM 41.8247 -105.2656 266° West 400 460 38,000  Level Denver Center
Tue 03:04:48 PM 41.8183 -105.4075 267° West 399 459 38,000  Level Denver Center
Tue 03:05:50 PM 41.8117 -105.5489 266° West 398 458 38,000  Level Denver Center
Tue 03:06:52 PM 41.8036 -105.7172 266° West 404 465 38,000  Level Denver Center
Tue 03:07:53 PM 41.7964 -105.8628 266° West 408 470 38,000  Level Denver Center
Tue 03:09:07 PM 41.7878 -106.0333 266° West 411 473 38,000  Level Denver Center
Tue 03:10:09 PM 41.7783 -106.2061 266° West 414 476 38,000  Level Denver Center
Tue 03:11:11 PM 41.7681 -106.3769 265° West 413 475 38,000  Level Denver Center
Tue 03:12:12 PM 41.7608 -106.5250 266° West 412 474 38,000  Level Denver Center
Tue 03:13:14 PM 41.7511 -106.6961 266° West 413 475 38,000  Level Denver Center
Tue 03:14:16 PM 41.7419 -106.8433 265° West 416 479 38,000  Level Denver Center
Tue 03:15:18 PM 41.7319 -107.0136 266° West 413 475 38,000  Level Denver Center
Tue 03:16:19 PM 41.7228 -107.1608 265° West 414 476 38,000  Level Denver Center
Tue 03:17:21 PM 41.7139 -107.3069 265° West 413 475 38,000  Level Denver Center
Tue 03:18:23 PM 41.7028 -107.4764 265° West 410 472 38,000  Level Denver Center
Tue 03:19:24 PM 41.6925 -107.6208 265° West 408 470 38,000  Level Denver Center
Tue 03:20:26 PM 41.6808 -107.7903 265° West 411 473 38,000  Level Denver Center
Tue 03:21:14 PM 41.6725 -107.9133 265° West 415 478 38,000  Level Salt Lake Center
Tue 03:22:16 PM 41.6622 -108.0594 265° West 413 475 38,000  Level Salt Lake Center
Tue 03:23:17 PM 41.6494 -108.2281 264° West 409 471 38,000  Level Salt Lake Center
Tue 03:24:19 PM 41.6386 -108.3742 264° West 413 475 38,000  Level Salt Lake Center
Tue 03:25:21 PM 41.6283 -108.5208 265° West 415 478 38,000  Level Salt Lake Center
Tue 03:26:22 PM 41.6164 -108.6925 265° West 417 480 38,000  Level Salt Lake Center
Tue 03:27:24 PM 41.6042 -108.8411 264° West 421 484 38,000  Level Salt Lake Center
Tue 03:28:25 PM 41.5917 -109.0119 264° West 419 482 38,000  Level Salt Lake Center
Tue 03:29:27 PM 41.5867 -109.1569 267° West 417 480 38,000  Level Salt Lake Center
Tue 03:30:29 PM 41.5822 -109.3258 268° West 415 478 38,000  Level Salt Lake Center
Tue 03:31:30 PM 41.5775 -109.4722 268° West 415 478 38,000  Level Salt Lake Center
Tue 03:32:32 PM 41.5722 -109.6447 268° West 417 480 38,000  Level Salt Lake Center
Tue 03:33:33 PM 41.5669 -109.7911 267° West 416 479 38,000  Level Salt Lake Center
Tue 03:34:35 PM 41.5611 -109.9619 267° West 414 476 38,000  Level Salt Lake Center
Tue 03:35:37 PM 41.5556 -110.1056 267° West 409 471 38,000  Level Salt Lake Center
Tue 03:36:38 PM 41.5497 -110.2736 267° West 406 467 38,000  Level Salt Lake Center
Tue 03:37:40 PM 41.5442 -110.4203 267° West 411 473 38,000  Level Salt Lake Center
Tue 03:38:41 PM 41.5381 -110.5667 267° West 413 475 38,000  Level Salt Lake Center
Tue 03:39:43 PM 41.5317 -110.7372 267° West 413 475 38,000  Level Salt Lake Center
Tue 03:40:44 PM 41.5258 -110.8825 267° West 411 473 38,000  Level Salt Lake Center
Tue 03:41:46 PM 41.5194 -111.0289 267° West 412 474 38,000  Level Salt Lake Center
Tue 03:42:48 PM 41.5111 -111.2131 267° West 416 479 38,000  Level Salt Lake Center
Tue 03:43:49 PM 41.5042 -111.3669 267° West 418 481 38,000  Level Salt Lake Center
Tue 03:44:51 PM 41.4961 -111.5211 266° West 420 483 38,000  Level Salt Lake Center
Tue 03:45:52 PM 41.4897 -111.6758 267° West 421 484 38,000  Level Salt Lake Center
Tue 03:46:54 PM 41.4822 -111.8283 266° West 418 481 38,000  Level Salt Lake Center
Tue 03:47:55 PM 41.4739 -111.9811 266° West 417 480 38,000  Level Salt Lake Center
Tue 03:48:57 PM 41.4644 -112.1661 266° West 421 484 38,000  Level Salt Lake Center
Tue 03:49:58 PM 41.4561 -112.3189 266° West 419 482 38,000  Level Salt Lake Center
Tue 03:51:00 PM 41.4481 -112.4742 266° West 422 486 38,000  Level Salt Lake Center
Tue 03:52:01 PM 41.4386 -112.6303 265° West 426 490 38,000  Level Salt Lake Center
Tue 03:53:03 PM 41.4297 -112.7869 266° West 427 491 38,000  Level Salt Lake Center
Tue 03:54:05 PM 41.4208 -112.9442 266° West 428 493 38,000  Level Salt Lake Center
Tue 03:55:06 PM 41.4114 -113.0997 265° West 424 488 38,000  Level Salt Lake Center
Tue 03:56:08 PM 41.3986 -113.2883 265° West 427 491 38,000  Level Salt Lake Center
Tue 03:57:09 PM 41.3878 -113.4486 265° West 434 499 38,000  Level Salt Lake Center
Tue 03:58:11 PM 41.3786 -113.6064 266° West 431 496 38,000  Level Salt Lake Center
Tue 03:59:12 PM 41.3678 -113.7653 265° West 432 497 38,000  Level Salt Lake Center
Tue 04:00:14 PM 41.3467 -113.9222 260° West 432 497 38,000  Level Salt Lake Center
Tue 04:01:15 PM 41.3053 -114.0767 250° West 440 506 38,000  Level Salt Lake Center
Tue 04:02:17 PM 41.2667 -114.2300 252° West 439 505 38,000  Level Salt Lake Center
Tue 04:03:18 PM 41.2192 -114.4194 252° West 449 517 38,000  Level Salt Lake Center
Tue 04:04:20 PM 41.1828 -114.5703 252° West 438 504 38,000  Level Salt Lake Center
Tue 04:05:21 PM 41.1450 -114.7217 252° West 433 498 38,000  Level Salt Lake Center
Tue 04:06:23 PM 41.1044 -114.8789 251° West 436 502 38,000  Level Salt Lake Center
Tue 04:07:24 PM 41.0700 -115.0272 253° West 440 506 38,000  Level Salt Lake Center
Tue 04:08:26 PM 41.0256 -115.1964 251° West 437 503 38,000  Level Salt Lake Center
Tue 04:09:27 PM 40.9867 -115.3425 251° West 440 506 38,000  Level Salt Lake Center
Tue 04:10:29 PM 40.9503 -115.4883 252° West 438 504 38,000  Level Salt Lake Center
Tue 04:11:30 PM 40.9069 -115.6583 251° West 438 504 38,000  Level Salt Lake Center
Tue 04:12:32 PM 40.8686 -115.8042 251° West 439 505 38,000  Level Salt Lake Center
Tue 04:13:33 PM 40.8236 -115.9736 251° West 439 505 38,000  Level Salt Lake Center
Tue 04:14:35 PM 40.7867 -116.1200 252° West 440 506 38,000  Level Salt Lake Center
Tue 04:15:36 PM 40.7400 -116.2917 250° West 446 513 38,000  Level Salt Lake Center
Tue 04:16:38 PM 40.7006 -116.4381 250° West 444 511 38,000  Level Salt Lake Center
Tue 04:17:39 PM 40.6608 -116.5836 250° West 444 511 38,000  Level Salt Lake Center
Tue 04:18:40 PM 40.6153 -116.7531 251° West 444 511 38,000  Level Salt Lake Center
Tue 04:19:42 PM 40.5758 -116.8967 250° West 443 510 38,000  Level Salt Lake Center
Tue 04:20:43 PM 40.5322 -117.0628 251° West 438 504 38,000  Level Salt Lake Center
Tue 04:21:45 PM 40.4953 -117.2067 251° West 438 504 38,000  Level Salt Lake Center
Tue 04:22:46 PM 40.4508 -117.3742 251° West 437 503 38,000  Level Salt Lake Center
Tue 04:23:48 PM 40.4122 -117.5183 251° West 438 504 38,000  Level Salt Lake Center
Tue 04:24:49 PM 40.3667 -117.6878 251° West 441 507 38,000  Level Salt Lake Center
Tue 04:25:51 PM 40.3281 -117.8300 250° West 437 503 38,000  Level Salt Lake Center
Tue 04:26:52 PM 40.2894 -117.9753 251° West 438 504 38,000  Level Salt Lake Center
Tue 04:27:53 PM 40.2439 -118.1425 250° West 438 504 38,000  Level Salt Lake Center
Tue 04:28:55 PM 40.2039 -118.2850 250° West 437 503 38,000  Level Salt Lake Center
Tue 04:29:56 PM 40.1608 -118.4517 251° West 435 501 38,000  Level Salt Lake Center
Tue 04:30:58 PM 40.1203 -118.5897 249° West 436 502 38,000  Level Salt Lake Center
Tue 04:31:59 PM 40.0606 -118.7297 241° Southwest 441 507 38,000  Level Salt Lake Center
Tue 04:33:01 PM 40.0014 -118.8708 241° Southwest 445 512 38,000  Level Salt Lake Center
Tue 04:34:02 PM 39.9414 -119.0125 241° Southwest 448 516 38,000  Level Salt Lake Center
Tue 04:35:03 PM 39.8686 -119.1814 241° Southwest 449 517 38,000 -537 Level Salt Lake Center
Tue 04:36:05 PM 39.8086 -119.3200 241° Southwest 445 512 36,900 -1,412 Descending Salt Lake Center
Tue 04:37:19 PM 39.7381 -119.4861 241° Southwest 437 503 34,800 -1,676 Descending Oakland Center
Tue 04:38:21 PM 39.6783 -119.6231 240° Southwest 437 503 33,100 -1,756 Descending Oakland Center
Tue 04:39:22 PM 39.6200 -119.7583 241° Southwest 433 498 31,200 -1,805 Descending Oakland Center
Tue 04:40:24 PM 39.5611 -119.8911 240° Southwest 428 493 29,400 -1,902 Descending Oakland Center
Tue 04:41:25 PM 39.4931 -120.0497 241° Southwest 420 483 27,300 -1,756 Descending Oakland Center
Tue 04:42:27 PM 39.4433 -120.1603 240° Southwest 419 482 25,800 -1,659 Descending Oakland Center
Tue 04:43:28 PM 39.3717 -120.3250 241° Southwest 437 503 23,900 -1,672 Descending Oakland Center
Tue 04:44:29 PM 39.3103 -120.4597 240° Southwest 437 503 22,400 -1,463 Descending Oakland Center
Tue 04:45:31 PM 39.2525 -120.5903 240° Southwest 423 487 20,900 -1,463 Descending Oakland Center
Tue 04:46:32 PM 39.1986 -120.7203 242° Southwest 414 476 19,400 -1,475 Descending Oakland Center
Tue 04:47:33 PM 39.1636 -120.8581 252° West 405 466 17,900 -1,220 Descending Oakland Center
Tue 04:48:35 PM 39.1250 -120.9911 250° West 400 460 16,900 -1,220 Descending Oakland Center
Tue 04:49:36 PM 39.0878 -121.1239 250° West 397 457 15,400 -1,475 Descending Oakland Center
Tue 04:50:37 PM 39.0367 -121.2492 242° Southwest 400 460 13,900 -1,463 Descending Oakland Center
Tue 04:51:39 PM 38.9842 -121.3711 241° Southwest 395 455 12,400 -1,610 Descending Oakland Center
Tue 04:52:40 PM 38.9392 -121.5086 247° West 352 405 10,600 -1,623 Descending Oakland Center
Tue 04:53:41 PM 38.9058 -121.6044 246° West 305 351 9,100 -1,463 Descending Oakland Center
Tue 04:54:43 PM 38.8756 -121.6964 247° West 286 329 7,600 -1,415 Descending Oakland Center
Tue 04:55:44 PM 38.8189 -121.7439 213° Southwest 276 318 6,200 -1,426 Descending Oakland Center
Tue 04:56:45 PM 38.7433 -121.7247 169° South 278 320 4,700 -1,475 Descending Oakland Center
Tue 04:57:46 PM 38.6708 -121.6997 165° South 273 314 3,200 -1,122 Descending Oakland Center
Tue 04:58:48 PM 38.6019 -121.6875 172° South 257 296 2,400 -537 Descending Oakland Center
Tue 04:59:49 PM 38.5322 -121.6769 173° South 218 251 2,100 -148 Descending Oakland Center
Tue 05:00:50 PM 38.4850 -121.6494 155° Southeast 204 235 2,100 -47 Level Oakland Center
Tue 05:01:56 PM 38.5167 -121.6000 51° Northeast 167 192 2,000 -50 Descending Northern Cal TRACON
Tue 05:02:51 PM 38.5500 -121.6000 360° North 155 178 2,000 -52 Level Northern Cal TRACON
Tue 05:03:51 PM 38.5833 -121.6000 360° North 142 163 1,900 -400 Descending Northern Cal TRACON
Tue 05:04:51 PM 38.6167 -121.6000 360° North 135 155 1,200 -700 Descending Northern Cal TRACON
Tue 05:05:51 PM 38.6667 -121.6000 360° North 119 137 500 -700 Descending Northern Cal TRACON

Login

Don't have an account? Register now (free) for customized features, flight alerts, and more!